createdAt,value
2022-09-07T00:01:55.307Z,2.10
2022-09-07T00:04:26.253Z,2.30
2022-09-07T00:06:56.514Z,2.60
2022-09-07T00:09:26.869Z,2.20
2022-09-07T00:11:56.879Z,2.20
2022-09-07T00:14:27.431Z,2.60
2022-09-07T00:16:57.617Z,2.20
2022-09-07T00:19:27.691Z,2.40
2022-09-07T00:21:57.840Z,2.40
2022-09-07T00:24:27.927Z,2.50
2022-09-07T00:26:58.241Z,2.50
2022-09-07T00:29:28.715Z,2.40
2022-09-07T00:31:58.965Z,2.10
2022-09-07T00:34:29.279Z,2.40
2022-09-07T00:36:59.609Z,2.20
2022-09-07T00:39:30.146Z,2.70
2022-09-07T00:45:03.719Z,2.00
2022-09-07T00:47:42.263Z,2.30
2022-09-07T00:50:19.227Z,2.40
2022-09-07T00:52:54.967Z,2.10
2022-09-07T00:55:27.168Z,2.40
2022-09-07T00:57:58.998Z,2.40
2022-09-07T01:00:30.127Z,2.10
2022-09-07T01:03:01.318Z,2.70
2022-09-07T01:05:37.138Z,2.40
2022-09-07T01:08:08.927Z,2.80
2022-09-07T01:10:39.907Z,2.80
2022-09-07T01:13:10.174Z,2.50
2022-09-07T01:15:53.946Z,2.40
2022-09-07T01:18:33.865Z,2.40
2022-09-07T01:21:25.441Z,2.40
2022-09-07T01:24:33.617Z,2.20
2022-09-07T01:27:51.014Z,2.50
2022-09-07T01:30:23.171Z,2.20
2022-09-07T01:33:36.307Z,2.30
2022-09-07T01:36:21.889Z,2.40
2022-09-07T01:38:56.295Z,2.50
2022-09-07T01:41:36.216Z,2.50
2022-09-07T01:44:11.657Z,2.00
2022-09-07T01:46:50.171Z,2.40
2022-09-07T01:49:25.806Z,2.20
2022-09-07T01:52:03.171Z,3.00
2022-09-07T01:54:37.523Z,2.30
2022-09-07T01:57:14.367Z,2.40
2022-09-07T01:59:51.033Z,2.40
2022-09-07T02:02:25.194Z,2.10
2022-09-07T02:05:01.477Z,2.60
2022-09-07T02:07:40.534Z,2.30
2022-09-07T02:10:16.614Z,2.60
2022-09-07T02:12:52.858Z,2.50
2022-09-07T02:15:28.405Z,2.40
2022-09-07T02:18:03.106Z,2.30
2022-09-07T02:20:37.793Z,2.40
2022-09-07T02:23:14.487Z,2.50
2022-09-07T02:25:51.590Z,2.80
2022-09-07T02:28:27.623Z,2.90
2022-09-07T02:30:58.320Z,2.40
2022-09-07T02:33:29.170Z,3.00
2022-09-07T02:36:00.170Z,2.40
2022-09-07T02:38:32.102Z,2.60
2022-09-07T02:41:04.297Z,2.30
2022-09-07T02:43:34.835Z,2.40
2022-09-07T02:46:21.806Z,2.30
2022-09-07T02:49:01.721Z,2.30
2022-09-07T02:51:42.516Z,2.80
2022-09-07T02:54:32.773Z,2.40
2022-09-07T02:57:16.413Z,2.30
2022-09-07T03:00:02.517Z,2.20
2022-09-07T03:02:41.785Z,2.10
2022-09-07T03:05:17.751Z,2.80
2022-09-07T03:07:55.292Z,2.30
2022-09-07T03:10:25.105Z,2.20
2022-09-07T03:12:54.405Z,2.30
2022-09-07T03:15:26.428Z,2.40
2022-09-07T03:22:06.339Z,2.60
2022-09-07T03:24:36.703Z,2.50
2022-09-07T03:27:06.389Z,2.50
2022-09-07T03:29:40.200Z,2.20
2022-09-07T03:32:11.138Z,2.20
2022-09-07T03:49:59.022Z,2.80
2022-09-07T03:52:31.810Z,2.60
2022-09-07T03:55:04.927Z,2.50
2022-09-07T03:57:37.729Z,2.20
2022-09-07T04:00:13.536Z,2.70
2022-09-07T04:02:46.652Z,2.00
2022-09-07T04:05:20.152Z,2.20
2022-09-07T04:07:53.948Z,2.50
2022-09-07T04:10:26.703Z,2.00
2022-09-07T04:12:59.491Z,2.30
2022-09-07T04:15:33.496Z,2.20
2022-09-07T04:18:06.482Z,2.40
2022-09-07T04:20:39.352Z,2.20
2022-09-07T04:23:12.152Z,2.20
2022-09-07T04:25:52.164Z,1.90
2022-09-07T04:28:25.264Z,2.20
2022-09-07T04:31:00.761Z,2.10
2022-09-07T04:33:35.577Z,2.60
2022-09-07T04:36:09.856Z,2.40
2022-09-07T04:38:42.915Z,2.10
2022-09-07T04:41:18.606Z,1.70
2022-09-07T04:43:56.190Z,2.20
2022-09-07T04:46:31.490Z,1.80
2022-09-07T04:49:08.250Z,1.80
2022-09-07T04:51:44.538Z,2.20
2022-09-07T04:54:17.381Z,2.20
2022-09-07T04:56:50.165Z,2.20
2022-09-07T04:59:23.151Z,2.40
2022-09-07T05:01:55.885Z,2.00
2022-09-07T05:04:28.946Z,2.40
2022-09-07T05:07:01.851Z,2.10
2022-09-07T05:09:35.002Z,2.30
2022-09-07T05:12:08.748Z,1.90
2022-09-07T05:14:41.640Z,2.40
2022-09-07T05:17:14.366Z,2.30
2022-09-07T05:19:47.354Z,2.40
2022-09-07T05:22:21.264Z,2.20
2022-09-07T05:24:54.083Z,2.20
2022-09-07T05:27:26.824Z,2.40
2022-09-07T05:32:37.406Z,1.90
2022-09-07T05:35:12.394Z,1.90
2022-09-07T05:37:45.294Z,1.80
2022-09-07T05:40:18.647Z,2.30
2022-09-07T05:42:51.639Z,1.90
2022-09-07T05:45:24.392Z,2.10
2022-09-07T05:47:57.387Z,1.90
2022-09-07T05:50:30.214Z,2.50
2022-09-07T05:53:04.582Z,2.30
2022-09-07T05:55:37.369Z,2.00
2022-09-07T05:58:11.069Z,2.20
2022-09-07T06:00:43.954Z,2.10
2022-09-07T06:03:17.549Z,2.00
2022-09-07T06:05:50.672Z,1.90
2022-09-07T06:08:23.558Z,2.00
2022-09-07T06:10:56.621Z,2.20
2022-09-07T06:13:29.481Z,2.00
2022-09-07T06:16:07.040Z,2.30
2022-09-07T06:18:42.620Z,2.00
2022-09-07T06:21:17.980Z,2.10
2022-09-07T06:23:51.975Z,2.60
2022-09-07T06:26:24.896Z,2.80
2022-09-07T06:28:58.114Z,2.80
2022-09-07T06:31:31.520Z,1.90
2022-09-07T06:34:04.681Z,2.40
2022-09-07T06:36:37.458Z,2.50
2022-09-07T06:39:10.561Z,2.10
2022-09-07T06:41:58.857Z,2.30
2022-09-07T06:44:35.241Z,2.10
2022-09-07T06:47:08.077Z,2.40
2022-09-07T06:49:40.808Z,2.30
2022-09-07T06:52:13.592Z,2.60
2022-09-07T06:55:02.001Z,2.70
2022-09-07T06:57:34.938Z,2.60
2022-09-07T07:00:10.411Z,2.40
2022-09-07T07:02:43.056Z,2.60
2022-09-07T07:05:16.016Z,2.30
2022-09-07T07:07:48.956Z,2.30
2022-09-07T07:10:24.723Z,2.20
2022-09-07T07:12:58.824Z,2.20
2022-09-07T07:15:33.107Z,2.70
2022-09-07T07:18:20.367Z,3.00
2022-09-07T07:20:54.038Z,2.90
2022-09-07T07:23:27.170Z,2.50
2022-09-07T07:26:06.965Z,2.60
2022-09-07T07:31:34.827Z,2.60
2022-09-07T07:34:07.718Z,2.60
2022-09-07T07:36:40.417Z,2.90
2022-09-07T07:42:07.073Z,3.10
2022-09-07T07:44:39.824Z,2.90
2022-09-07T07:47:12.755Z,2.90
2022-09-07T07:49:46.151Z,2.80
2022-09-07T07:58:05.552Z,3.30
2022-09-07T08:00:53.744Z,3.20
2022-09-07T08:03:27.979Z,3.30
2022-09-07T08:06:08.358Z,3.00
2022-09-07T08:08:41.671Z,3.00
2022-09-07T08:11:17.326Z,3.90
2022-09-07T08:13:51.959Z,3.10
2022-09-07T08:16:24.789Z,3.00
2022-09-07T08:18:58.788Z,2.90
2022-09-07T08:21:32.025Z,3.40
2022-09-07T08:24:06.190Z,3.20
2022-09-07T08:26:38.918Z,3.60
2022-09-07T08:29:11.618Z,3.40
2022-09-07T08:31:44.951Z,3.20
2022-09-07T08:34:18.560Z,3.00
2022-09-07T08:36:51.415Z,3.30
2022-09-07T08:39:24.373Z,3.10
2022-09-07T08:42:44.773Z,3.20
2022-09-07T08:45:22.874Z,3.30
2022-09-07T08:47:56.186Z,3.60
2022-09-07T08:50:34.779Z,3.70
2022-09-07T08:53:15.216Z,3.60
2022-09-07T08:55:56.777Z,3.50
2022-09-07T08:58:49.441Z,3.60
2022-09-07T09:01:30.993Z,4.10
2022-09-07T09:04:21.782Z,3.60
2022-09-07T09:07:16.825Z,3.20
2022-09-07T09:10:18.228Z,4.00
2022-09-07T09:13:14.665Z,3.30
2022-09-07T09:16:03.698Z,3.50
2022-09-07T09:18:59.244Z,3.50
2022-09-07T09:21:32.247Z,3.80
2022-09-07T09:24:16.078Z,3.30
2022-09-07T09:26:55.920Z,3.50
2022-09-07T09:31:59.638Z,3.40
2022-09-07T09:34:34.696Z,3.50
2022-09-07T09:37:12.685Z,3.40
2022-09-07T09:39:48.176Z,3.80
2022-09-07T09:42:31.659Z,3.60
2022-09-07T09:45:16.938Z,3.90
2022-09-07T09:47:54.899Z,3.40
2022-09-07T09:53:35.960Z,3.30
2022-09-07T09:56:09.535Z,3.10
2022-09-07T10:04:37.492Z,3.40
2022-09-07T10:07:23.040Z,3.80
2022-09-07T10:09:56.824Z,3.30
2022-09-07T10:12:34.429Z,3.40
2022-09-07T10:15:25.639Z,4.10
2022-09-07T10:17:59.336Z,3.30
2022-09-07T10:20:38.890Z,3.40
2022-09-07T10:25:55.721Z,3.60
2022-09-07T10:29:06.358Z,3.60
2022-09-07T10:31:27.855Z,3.30
2022-09-07T10:34:26.136Z,3.10
2022-09-07T10:37:05.540Z,3.30
2022-09-07T10:39:43.564Z,3.50
2022-09-07T10:42:29.895Z,3.20
2022-09-07T10:45:16.733Z,3.70
2022-09-07T10:48:01.598Z,3.30
2022-09-07T10:50:42.133Z,3.70
2022-09-07T10:54:29.112Z,3.20
2022-09-07T10:56:37.128Z,3.50
2022-09-07T11:00:07.597Z,3.30
2022-09-07T11:02:34.466Z,3.30
2022-09-07T11:05:17.594Z,3.50
2022-09-07T11:08:15.613Z,3.50
2022-09-07T11:10:58.289Z,3.30
2022-09-07T11:13:55.462Z,3.40
2022-09-07T11:19:35.869Z,3.40
2022-09-07T11:22:20.780Z,3.90
2022-09-07T11:27:57.749Z,3.50
2022-09-07T11:30:34.415Z,3.10
2022-09-07T11:33:18.632Z,3.80
2022-09-07T11:35:59.862Z,3.90
2022-09-07T11:38:41.778Z,3.30
2022-09-07T11:41:27.631Z,3.50
2022-09-07T11:44:07.403Z,3.80
2022-09-07T11:46:48.101Z,3.70
2022-09-07T11:49:25.966Z,3.40
2022-09-07T11:52:05.909Z,3.00
2022-09-07T11:54:48.670Z,3.00
2022-09-07T11:57:59.623Z,3.50
2022-09-07T12:00:41.154Z,3.50
2022-09-07T12:03:32.416Z,3.10
2022-09-07T12:06:47.856Z,3.00
2022-09-07T12:09:42.857Z,3.30
2022-09-07T12:12:43.886Z,2.90
2022-09-07T12:15:30.427Z,2.90
2022-09-07T12:18:40.600Z,3.40
2022-09-07T12:21:39.305Z,3.10
2022-09-07T12:27:41.804Z,3.90
2022-09-07T12:30:58.296Z,2.90
2022-09-07T12:33:34.944Z,3.50
2022-09-07T12:36:38.697Z,3.00
2022-09-07T12:39:28.881Z,2.90
2022-09-07T12:42:37.249Z,3.00
2022-09-07T12:46:01.121Z,3.10
2022-09-07T12:48:55.158Z,3.20
2022-09-07T12:54:38.918Z,3.20
2022-09-07T12:57:30.479Z,2.90
2022-09-07T13:00:18.108Z,3.20
2022-09-07T13:03:49.790Z,3.30
2022-09-07T13:09:41.433Z,3.00
2022-09-07T13:12:56.735Z,2.80
2022-09-07T13:15:48.921Z,3.10
2022-09-07T13:18:47.892Z,2.80
2022-09-07T13:21:54.993Z,3.00
2022-09-07T13:24:56.645Z,3.30
2022-09-07T13:27:56.816Z,3.30
2022-09-07T13:30:46.662Z,2.90
2022-09-07T13:33:54.415Z,2.90
2022-09-07T13:36:41.523Z,3.00
2022-09-07T13:39:20.158Z,3.10
2022-09-07T13:41:57.166Z,3.30
2022-09-07T13:44:37.785Z,3.00
2022-09-07T13:47:22.396Z,2.70
2022-09-07T13:50:20.063Z,3.10
2022-09-07T13:53:28.047Z,3.20
2022-09-07T13:56:15.899Z,3.20
2022-09-07T13:58:52.572Z,3.30
2022-09-07T14:01:28.004Z,3.50
2022-09-07T14:04:07.861Z,3.10
2022-09-07T14:06:41.564Z,3.70
2022-09-07T14:09:19.701Z,2.90
2022-09-07T14:14:29.608Z,2.90
2022-09-07T14:17:11.946Z,3.40
2022-09-07T14:19:47.444Z,3.40
2022-09-07T14:22:23.416Z,3.40
2022-09-07T14:24:58.045Z,3.20
2022-09-07T14:27:36.618Z,2.90
2022-09-07T14:30:33.366Z,2.70
2022-09-07T14:33:17.500Z,2.80
2022-09-07T14:35:51.392Z,2.70
2022-09-07T14:41:24.295Z,2.70
2022-09-07T14:44:00.248Z,2.80
2022-09-07T14:46:35.346Z,3.00
2022-09-07T14:49:22.030Z,2.70
2022-09-07T14:51:55.801Z,2.80
2022-09-07T14:54:32.812Z,3.10
2022-09-07T14:57:30.673Z,3.20
2022-09-07T15:00:31.167Z,2.90
2022-09-07T15:03:31.483Z,3.30
2022-09-07T15:06:05.191Z,3.00
2022-09-07T15:08:45.894Z,3.10
2022-09-07T15:11:39.730Z,3.00
2022-09-07T15:14:21.557Z,3.30
2022-09-07T15:19:58.246Z,3.00
2022-09-07T15:22:31.031Z,3.00
2022-09-07T15:25:04.128Z,3.10
2022-09-07T15:27:38.850Z,3.70
2022-09-07T15:30:14.993Z,4.00
2022-09-07T15:32:50.195Z,3.30
2022-09-07T15:35:23.132Z,3.20
2022-09-07T15:38:05.013Z,3.30
2022-09-07T15:41:10.651Z,3.30
2022-09-07T15:43:39.678Z,3.30
2022-09-07T15:46:13.682Z,5.40
2022-09-07T15:48:52.566Z,3.70
2022-09-07T15:54:20.582Z,3.90
2022-09-07T15:59:46.336Z,3.40
2022-09-07T16:05:14.728Z,3.30
2022-09-07T16:10:41.309Z,4.00
2022-09-07T16:13:16.914Z,3.40
2022-09-07T16:15:51.265Z,3.30
2022-09-07T16:18:24.349Z,3.10
2022-09-07T16:20:57.037Z,3.40
2022-09-07T16:23:29.764Z,3.30
2022-09-07T16:26:05.355Z,3.50
2022-09-07T16:28:41.421Z,3.20
2022-09-07T16:31:17.542Z,3.60
2022-09-07T16:33:50.385Z,3.90
2022-09-07T16:36:24.242Z,3.30
2022-09-07T16:39:01.638Z,3.10
2022-09-07T16:41:35.901Z,3.70
2022-09-07T16:44:08.886Z,3.60
2022-09-07T16:46:41.862Z,4.10
2022-09-07T16:49:16.880Z,3.60
2022-09-07T16:51:49.860Z,3.10
2022-09-07T16:54:22.959Z,3.50
2022-09-07T16:56:55.688Z,4.00
2022-09-07T16:59:28.520Z,3.50
2022-09-07T17:02:01.711Z,4.10
2022-09-07T17:04:34.808Z,3.70
2022-09-07T17:07:07.688Z,4.00
2022-09-07T17:09:42.929Z,4.10
2022-09-07T17:12:15.721Z,3.50
2022-09-07T17:14:48.490Z,3.20
2022-09-07T17:17:23.627Z,3.90
2022-09-07T17:19:58.665Z,6.60
2022-09-07T17:22:31.450Z,4.40
2022-09-07T17:25:04.130Z,4.00
2022-09-07T17:27:37.110Z,3.80
2022-09-07T17:30:12.370Z,4.10
2022-09-07T17:32:45.412Z,4.10
2022-09-07T17:35:19.535Z,3.60
2022-09-07T17:37:52.331Z,4.00
2022-09-07T17:40:25.701Z,3.90
2022-09-07T17:45:52.494Z,3.70
2022-09-07T17:48:25.379Z,3.80
2022-09-07T17:51:07.665Z,4.00
2022-09-07T17:53:45.283Z,3.30
2022-09-07T17:56:19.583Z,3.90
2022-09-07T17:58:53.775Z,3.20
2022-09-07T18:01:26.911Z,3.50
2022-09-07T18:04:01.122Z,4.10
2022-09-07T18:06:34.203Z,3.70
2022-09-07T18:09:08.116Z,3.80
2022-09-07T18:11:45.423Z,4.10
2022-09-07T18:14:20.129Z,3.30
2022-09-07T18:16:54.145Z,3.50
2022-09-07T18:19:27.431Z,4.20
2022-09-07T18:22:02.709Z,3.60
2022-09-07T18:24:36.935Z,4.00
2022-09-07T18:27:10.288Z,4.20
2022-09-07T18:29:45.527Z,4.50
2022-09-07T18:32:18.316Z,3.70
2022-09-07T18:34:51.090Z,5.50
2022-09-07T18:37:24.157Z,10.30
2022-09-07T18:39:57.206Z,7.90
2022-09-07T18:42:30.578Z,5.30
2022-09-07T18:47:56.199Z,4.50
2022-09-07T18:50:29.057Z,4.60
2022-09-07T18:53:15.869Z,4.90
2022-09-07T18:55:50.722Z,4.80
2022-09-07T18:58:24.420Z,4.60
2022-09-07T19:00:58.557Z,5.10
2022-09-07T19:03:31.415Z,5.10
2022-09-07T19:06:06.240Z,4.90
2022-09-07T19:08:41.594Z,5.00
2022-09-07T19:11:16.163Z,4.70
2022-09-07T19:13:49.423Z,4.40
2022-09-07T19:16:22.959Z,4.30
2022-09-07T19:18:57.375Z,4.50
2022-09-07T19:21:32.863Z,3.90
2022-09-07T19:24:08.109Z,3.80
2022-09-07T19:26:43.015Z,3.80
2022-09-07T19:29:18.493Z,3.50
2022-09-07T19:32:05.589Z,3.80
2022-09-07T19:34:40.266Z,4.10
2022-09-07T19:37:14.634Z,4.20
2022-09-07T19:39:49.579Z,4.10
2022-09-07T19:42:22.679Z,4.00
2022-09-07T19:44:55.973Z,4.10
2022-09-07T19:47:28.758Z,3.90
2022-09-07T19:50:01.847Z,4.50
2022-09-07T19:52:35.781Z,3.70
2022-09-07T19:55:10.449Z,3.70
2022-09-07T19:57:46.387Z,4.30
2022-09-07T20:00:20.003Z,4.20
2022-09-07T20:02:54.329Z,4.00
2022-09-07T20:05:29.804Z,3.90
2022-09-07T20:08:03.447Z,4.00
2022-09-07T20:10:37.155Z,3.70
2022-09-07T20:13:10.348Z,4.10
2022-09-07T20:15:45.362Z,4.10
2022-09-07T20:18:18.533Z,4.10
2022-09-07T20:20:51.416Z,3.80
2022-09-07T20:23:24.705Z,3.80
2022-09-07T20:26:05.906Z,3.80
2022-09-07T20:28:39.589Z,4.00
2022-09-07T20:31:15.512Z,3.90
2022-09-07T20:33:51.913Z,4.00
2022-09-07T20:36:25.492Z,4.40
2022-09-07T20:38:59.212Z,3.90
2022-09-07T20:41:35.204Z,4.10
2022-09-07T20:44:08.619Z,4.20
2022-09-07T20:46:41.926Z,4.20
2022-09-07T20:49:14.852Z,4.20
2022-09-07T20:51:47.485Z,4.30
2022-09-07T20:54:20.102Z,4.20
2022-09-07T20:56:52.970Z,4.40
2022-09-07T20:59:25.798Z,4.60
2022-09-07T21:01:58.597Z,4.10
2022-09-07T21:04:31.558Z,4.10
2022-09-07T21:07:04.530Z,4.50
2022-09-07T21:09:37.164Z,3.90
2022-09-07T21:12:10.545Z,4.20
2022-09-07T21:14:43.293Z,4.00
2022-09-07T21:17:16.080Z,4.80
2022-09-07T21:19:48.856Z,3.90
2022-09-07T21:22:21.644Z,4.70
2022-09-07T21:24:54.314Z,4.10
2022-09-07T21:27:27.022Z,4.40
2022-09-07T21:29:59.872Z,4.10
2022-09-07T21:32:32.860Z,4.10
2022-09-07T21:35:06.463Z,4.60
2022-09-07T21:37:39.190Z,4.80
2022-09-07T21:40:13.950Z,4.90
2022-09-07T21:42:46.757Z,4.20
2022-09-07T21:45:19.946Z,4.40
2022-09-07T21:47:52.732Z,4.40
2022-09-07T21:50:25.612Z,4.40
2022-09-07T21:52:58.704Z,4.60
2022-09-07T21:55:32.024Z,4.40
2022-09-07T21:58:04.882Z,4.80
2022-09-07T22:00:38.949Z,4.60
2022-09-07T22:03:11.809Z,4.40
2022-09-07T22:05:44.656Z,4.30
2022-09-07T22:08:17.841Z,4.30
2022-09-07T22:10:50.632Z,4.70
2022-09-07T22:13:23.416Z,4.90
2022-09-07T22:15:56.217Z,4.70
2022-09-07T22:18:30.619Z,4.60
2022-09-07T22:21:10.463Z,4.80
2022-09-07T22:23:46.418Z,4.10
2022-09-07T22:26:21.842Z,4.10
2022-09-07T22:28:55.261Z,4.70
2022-09-07T22:31:30.263Z,4.20
2022-09-07T22:34:04.892Z,4.90
2022-09-07T22:36:40.184Z,4.40
2022-09-07T22:39:16.902Z,4.40
2022-09-07T22:41:50.304Z,5.00
2022-09-07T22:44:23.011Z,5.20
2022-09-07T22:46:55.726Z,4.70
2022-09-07T22:49:29.121Z,5.30
2022-09-07T22:52:01.775Z,4.50
2022-09-07T22:54:34.477Z,5.20
2022-09-07T22:57:08.039Z,5.20
2022-09-07T22:59:40.841Z,4.90
2022-09-07T23:02:14.030Z,5.10
2022-09-07T23:04:46.807Z,4.90
2022-09-07T23:07:20.132Z,5.30
2022-09-07T23:09:53.054Z,4.90
2022-09-07T23:12:25.979Z,5.10
2022-09-07T23:14:58.721Z,5.30
2022-09-07T23:17:31.432Z,5.20
2022-09-07T23:20:04.773Z,4.90
2022-09-07T23:22:37.504Z,5.40
2022-09-07T23:25:11.769Z,5.50
2022-09-07T23:27:44.504Z,5.70
2022-09-07T23:30:18.248Z,6.00
2022-09-07T23:32:50.995Z,5.60
2022-09-07T23:35:23.688Z,5.00
2022-09-07T23:37:56.473Z,5.30
2022-09-07T23:40:30.569Z,4.80
2022-09-07T23:43:03.455Z,6.30
2022-09-07T23:45:36.751Z,5.50
2022-09-07T23:48:09.629Z,4.80
2022-09-07T23:50:43.840Z,5.80
2022-09-07T23:53:17.035Z,5.90
2022-09-07T23:55:51.782Z,5.60
2022-09-07T23:58:25.115Z,6.10
